KMJX/MJX METAR and TAF weather

Enter ICAO airport designator
Station Type Date Time Source
KMJX METAR 2019/06/26 15:56 UTC NOAA

KMJX 261556Z AUTO 33006KT 10SM CLR 29/15 A3005 RMK AO2 SLP177 T02890150


Station Type Date Time Source
KMJX Decoded METAR 2019/06/26 15:56 UTC NOAA

Station name not available
Jun 26, 2019 - 11:56 AM EDT / 2019.06.26 1556 UTC
Wind: from the NNW (330 degrees) at 7 MPH (6 KT):0
Visibility: 10 mile(s):0
Sky conditions: clear
Temperature: 84.0 F (28.9 C)
Dew Point: 59.0 F (15.0 C)
Relative Humidity: 42%
Pressure (altimeter): 30.05 in. Hg (1017 hPa)
ob: KMJX 261556Z AUTO 33006KT 10SM CLR 29/15 A3005 RMK AO2 SLP177 T02890150
cycle: 16

Station Type Date Time Source
KMJX TAF UTC NOAA

Error!

Example: see airport list